Time;durP1;ratioP1;P1;durP2;ratioP2;P2;SDS_P1;SDS_P2;PMS_P1;PMS_P2;Temp;Humidity;BMP_temperature;BMP_pressure;BME280_temperature;BME280_humidity;BME280_pressure;Samples;Min_cycle;Max_cycle;Signal;HPM_P1;HPM_P2
2022/04/16 00:01:12;;;;;;;;;;;;;;;3.78;89.35;100645.72;6301444;22;19921;-84
2022/04/16 00:03:38;;;;;;;;;;;;;;;3.79;89.31;100637.84;6302585;22;19993;-85
2022/04/16 00:06:03;;;;;;;;;;;;;;;3.79;89.22;100656.22;6329952;22;19918;-83
2022/04/16 00:08:29;;;;;;;;;;;;;;;3.79;89.22;100648.34;6337272;22;19930;-83
2022/04/16 00:10:55;;;;;;;;;;;;;;;3.79;89.24;100652.72;6335322;22;19920;-87
2022/04/16 00:13:22;;;;;;;;;;;;;;;3.79;89.13;100643.09;6336079;22;20063;-82
2022/04/16 00:15:49;;;;;;;;;;;;;;;3.78;89.04;100643.09;6307551;22;20324;-82
2022/04/16 00:18:14;;;;;;;;;;;;;;;3.77;88.79;100634.38;6335732;22;19936;-81
2022/04/16 00:20:40;;;;;;;;;;;;;;;3.78;88.80;100636.13;6337373;22;19910;-82
2022/04/16 00:23:06;;;;;;;;;;;;;;;3.84;89.18;100643.09;6337657;22;20318;-83
2022/04/16 00:25:33;;;;;;;;;;;;;;;4.02;91.73;100639.59;6337477;22;19914;-81
2022/04/16 00:27:58;;;;;;;;;;;;;;;3.97;92.78;100646.56;6336385;22;19907;-83
2022/04/16 00:30:23;;;;;;;;;;;;;;;3.95;93.41;100643.09;6338020;22;19918;-82
2022/04/16 00:32:51;;;;;;;;;;;;;;;3.92;93.48;100643.09;6336650;22;19960;-82
2022/04/16 00:35:18;;;;;;;;;;;;;;;3.91;93.64;100643.94;6338106;22;20242;-82
2022/04/16 00:37:44;;;;;;;;;;;;;;;3.87;93.54;100634.38;6338086;22;19915;-84
2022/04/16 00:40:09;;;;;;;;;;;;;;;3.89;93.68;100640.47;6310369;22;20246;-85
2022/04/16 00:42:39;;;;;;;;;;;;;;;3.90;93.66;100636.97;6310284;22;20215;-83
2022/04/16 00:45:05;;;;;;;;;;;;;;;3.87;93.71;100634.38;6338120;22;19914;-84
2022/04/16 00:47:30;;;;;;;;;;;;;;;3.87;93.56;100629.97;6336588;22;20233;-85
2022/04/16 00:49:55;;;;;;;;;;;;;;;3.90;93.56;100644.84;6338061;22;19914;-81
2022/04/16 00:52:21;;;;;;;;;;;;;;;3.95;94.32;100638.69;6310448;22;19911;-83
2022/04/16 00:54:47;;;;;;;;;;;;;;;4.04;95.32;100645.69;6337832;22;19949;-83
2022/04/16 00:57:12;;;;;;;;;;;;;;;4.22;97.42;100642.13;6310354;22;20339;-83
2022/04/16 00:59:37;;;;;;;;;;;;;;;4.54;100.00;100644.63;6310333;22;19910;-81
2022/04/16 01:02:03;;;;;;;;;;;;;;;4.86;100.00;100648.84;6329227;22;19914;-82
2022/04/16 01:04:28;;;;;;;;;;;;;;;5.07;100.00;100641.72;6310174;22;19986;-83
2022/04/16 01:06:53;;;;;;;;;;;;;;;5.24;100.00;100652.13;6335404;22;19922;-83
2022/04/16 01:09:18;;;;;;;;;;;;;;;5.37;100.00;100650.28;6330573;22;19911;-82
2022/04/16 03:30:42;;;;;;;;;;;;;;;7.02;100.00;100654.63;6300853;22;20288;-82
2022/04/16 03:33:08;;;;;;;;;;;;;;;7.04;100.00;100658.09;6280267;22;19919;-81
2022/04/16 03:35:34;;;;;;;;;;;;;;;7.05;100.00;100659.88;6280689;22;20233;-82
2022/04/16 03:38:00;;;;;;;;;;;;;;;7.05;100.00;100659.88;6307618;22;19915;-81
2022/04/16 03:40:26;;;;;;;;;;;;;;;7.06;100.00;100658.09;6307916;22;19915;-82
2022/04/16 03:42:52;;;;;;;;;;;;;;;7.06;100.00;100656.31;6307382;22;19953;-82
2022/04/16 03:45:20;;;;;;;;;;;;;;;7.08;100.00;100657.19;6306539;22;19911;-81
2022/04/16 03:47:46;;;;;;;;;;;;;;;7.09;100.00;100661.53;6280234;22;19919;-81
2022/04/16 03:50:12;;;;;;;;;;;;;;;7.10;100.00;100667.69;6280233;22;19995;-81
2022/04/16 03:52:44;;;;;;;;;;;;;;;7.13;100.00;100664.13;6280141;22;20242;-80
2022/04/16 04:00:41;;;;;;;;;;;;;;;5.79;100.00;100679.72;6305869;22;20345;-81
2022/04/16 04:03:07;;;;;;;;;;;;;;;5.61;100.00;100671.09;6307648;22;19950;-81
2022/04/16 04:05:32;;;;;;;;;;;;;;;5.50;100.00;100670.31;6280069;22;19915;-82
2022/04/16 04:07:57;;;;;;;;;;;;;;;5.40;100.00;100684.41;6307631;22;19915;-81
2022/04/16 04:10:22;;;;;;;;;;;;;;;5.31;100.00;100680.09;6280222;22;19911;-80
2022/04/16 04:12:47;;;;;;;;;;;;;;;5.24;100.00;100679.25;6307305;22;19976;-81
2022/04/16 04:15:13;;;;;;;;;;;;;;;5.22;100.00;100682.81;6305950;22;20004;-81
2022/04/16 04:17:38;;;;;;;;;;;;;;;5.19;100.00;100680.19;6307578;22;19915;-82
2022/04/16 04:20:04;;;;;;;;;;;;;;;5.13;100.00;100688.09;6307061;22;19910;-82
2022/04/16 04:22:29;;;;;;;;;;;;;;;5.09;100.00;100690.75;6280073;22;19994;-82
2022/04/16 04:24:54;;;;;;;;;;;;;;;5.06;100.00;100695.16;6280127;22;19967;-82
2022/04/16 04:27:19;;;;;;;;;;;;;;;5.01;100.00;100686.41;6279975;22;19922;-82
2022/04/16 04:29:44;;;;;;;;;;;;;;;5.02;100.00;100685.53;6305479;22;20353;-82
2022/04/16 04:32:10;;;;;;;;;;;;;;;5.11;100.00;100693.38;6306671;22;20284;-81
2022/04/16 04:34:35;;;;;;;;;;;;;;;5.16;100.00;100688.94;6306958;22;19942;-82
2022/04/16 04:37:01;;;;;;;;;;;;;;;5.12;100.00;100702.13;6306968;22;20281;-83
2022/04/16 04:39:26;;;;;;;;;;;;;;;5.07;100.00;100697.78;6306940;22;19949;-83
2022/04/16 04:41:51;;;;;;;;;;;;;;;5.02;100.00;100698.66;6306980;22;19946;-82
2022/04/16 04:44:17;;;;;;;;;;;;;;;4.99;100.00;100704.81;6305228;22;19911;-83
2022/04/16 04:46:42;;;;;;;;;;;;;;;4.94;100.00;100708.34;6306971;22;19942;-82
2022/04/16 04:49:08;;;;;;;;;;;;;;;4.90;100.00;100713.63;6306712;22;19964;-83
2022/04/16 04:51:36;;;;;;;;;;;;;;;4.88;100.00;100717.13;6306737;22;19915;-83
2022/04/16 04:54:02;;;;;;;;;;;;;;;4.84;100.00;100716.25;6306400;22;19915;-82
2022/04/16 04:56:28;;;;;;;;;;;;;;;4.83;100.00;100719.75;6306657;22;19918;-83
2022/04/16 04:58:53;;;;;;;;;;;;;;;4.79;100.00;100723.28;6305291;22;19960;-82
2022/04/16 05:01:19;;;;;;;;;;;;;;;4.77;100.00;100725.06;6306709;22;19957;-82
2022/04/16 05:03:44;;;;;;;;;;;;;;;4.72;100.00;100714.56;6306714;22;19919;-83
2022/04/16 05:06:09;;;;;;;;;;;;;;;4.72;100.00;100716.31;6306748;22;19918;-83
2022/04/16 05:08:34;;;;;;;;;;;;;;;4.71;100.00;100717.22;6306650;22;20277;-82
2022/04/16 05:11:00;;;;;;;;;;;;;;;4.67;100.00;100718.94;6306821;22;19914;-83
2022/04/16 05:13:25;;;;;;;;;;;;;;;4.65;100.00;100720.72;6279313;22;19939;-84
2022/04/16 05:15:50;;;;;;;;;;;;;;;4.60;100.00;100725.13;6305157;22;19918;-83
2022/04/16 07:35:07;;;;;;;;;;;;;;;3.91;92.71;100783.81;6299025;22;20293;-81
2022/04/16 07:37:32;;;;;;;;;;;;;;;3.89;92.74;100776.81;6307549;22;19918;-83
2022/04/16 07:39:57;;;;;;;;;;;;;;;3.91;92.75;100780.31;6307498;22;20340;-80
2022/04/16 07:42:31;;;;;;;;;;;;;;;3.92;92.73;100779.44;6280193;22;20349;-80
2022/04/16 07:44:56;;;;;;;;;;;;;;;3.95;93.01;100774.19;6279732;22;19911;-81
2022/04/16 07:47:22;;;;;;;;;;;;;;;3.93;92.99;100770.72;6280229;22;19918;-80
2022/04/16 07:49:47;;;;;;;;;;;;;;;3.95;93.01;100779.44;6278510;22;19917;-80
2022/04/16 07:52:13;;;;;;;;;;;;;;;3.94;92.85;100775.06;6280039;22;19914;-80
2022/04/16 07:54:38;;;;;;;;;;;;;;;3.97;92.98;100777.69;6280071;22;19911;-83
2022/04/16 07:57:05;;;;;;;;;;;;;;;3.92;92.85;100774.19;6307185;22;19915;-82
2022/04/16 07:59:30;;;;;;;;;;;;;;;3.91;92.82;100788.16;6307235;22;19921;-81
2022/04/16 08:01:55;;;;;;;;;;;;;;;3.93;93.01;100783.81;6307241;22;20059;-81
2022/04/16 08:04:20;;;;;;;;;;;;;;;3.94;92.82;100772.44;6278379;22;19918;-81
2022/04/16 08:06:46;;;;;;;;;;;;;;;3.90;92.89;100784.69;6279994;22;19998;-80
2022/04/16 08:09:11;;;;;;;;;;;;;;;3.95;93.12;100777.69;6270205;22;19906;-81
2022/04/16 08:11:36;;;;;;;;;;;;;;;3.99;93.22;100786.44;6307291;22;19914;-80
2022/04/16 08:14:01;;;;;;;;;;;;;;;3.97;93.06;100785.56;6270580;22;19911;-81
2022/04/16 08:16:27;;;;;;;;;;;;;;;3.97;93.09;100789.06;6297195;22;19911;-80
2022/04/16 08:18:53;;;;;;;;;;;;;;;4.01;93.32;100787.31;6305602;22;19914;-81
2022/04/16 08:21:20;;;;;;;;;;;;;;;4.06;93.38;100793.44;6279712;22;19957;-80
2022/04/16 08:23:55;;;;;;;;;;;;;;;4.04;93.23;100794.28;6307120;22;20037;-80
2022/04/16 08:26:24;;;;;;;;;;;;;;;4.04;93.16;100795.19;6307047;22;19937;-80
2022/04/16 08:28:49;;;;;;;;;;;;;;;4.00;93.11;100794.31;6306830;22;19915;-80
2022/04/16 08:31:14;;;;;;;;;;;;;;;3.95;92.81;100796.03;6307320;22;19921;-80
2022/04/16 08:33:39;;;;;;;;;;;;;;;3.96;92.65;100786.44;6305602;22;19985;-81
2022/04/16 08:36:05;;;;;;;;;;;;;;;3.98;92.96;100785.56;6306678;22;20242;-80
2022/04/16 08:38:30;;;;;;;;;;;;;;;3.96;92.82;100792.56;6279556;22;19919;-82
2022/04/16 08:40:56;;;;;;;;;;;;;;;3.96;92.42;100796.94;6306866;22;20319;-81
2022/04/16 08:43:21;;;;;;;;;;;;;;;3.95;92.40;100803.91;6306705;22;20048;-81
2022/04/16 08:45:48;;;;;;;;;;;;;;;3.91;92.37;100796.94;6306831;22;20390;-81
2022/04/16 08:48:14;;;;;;;;;;;;;;;3.94;92.62;100809.16;6295943;22;19953;-81
2022/04/16 08:50:39;;;;;;;;;;;;;;;3.96;92.65;100808.28;6277758;22;19911;-81
2022/04/16 08:53:05;;;;;;;;;;;;;;;3.97;92.49;100807.44;6296954;22;19934;-80
2022/04/16 08:55:31;;;;;;;;;;;;;;;3.91;92.17;100815.28;6306723;22;20241;-82
2022/04/16 08:57:56;;;;;;;;;;;;;;;3.99;92.45;100815.31;6297038;22;19911;-82
2022/04/16 09:00:22;;;;;;;;;;;;;;;3.98;92.30;100813.53;6279262;22;19964;-80
2022/04/16 09:02:56;;;;;;;;;;;;;;;3.97;92.42;100819.66;6279376;22;19917;-81
2022/04/16 09:05:21;;;;;;;;;;;;;;;4.02;92.43;100809.16;6296043;22;20331;-80
2022/04/16 09:07:48;;;;;;;;;;;;;;;3.98;92.28;100809.16;6279435;22;19925;-80
2022/04/16 09:10:14;;;;;;;;;;;;;;;3.96;92.38;100812.69;6279286;22;19922;-81
2022/04/16 09:12:39;;;;;;;;;;;;;;;3.95;92.31;100808.28;6306571;22;19914;-82
2022/04/16 09:15:12;;;;;;;;;;;;;;;4.02;92.22;100822.28;6306612;22;19911;-80
2022/04/16 09:17:38;;;;;;;;;;;;;;;4.10;92.18;100820.53;6306577;22;19911;-81
2022/04/16 09:20:10;;;;;;;;;;;;;;;4.08;92.07;100817.91;6304827;22;19938;-80
2022/04/16 09:22:37;;;;;;;;;;;;;;;4.12;92.18;100835.41;6279215;22;19911;-82
2022/04/16 09:25:04;;;;;;;;;;;;;;;4.16;92.11;100831.91;6306431;22;19911;-82
2022/04/16 09:27:46;;;;;;;;;;;;;;;4.13;92.14;100834.53;6296671;22;19926;-81
2022/04/16 09:30:12;;;;;;;;;;;;;;;4.13;91.87;100825.78;6279125;22;19922;-81
2022/04/16 09:32:45;;;;;;;;;;;;;;;4.07;91.63;100834.53;6268727;22;19915;-82
2022/04/16 09:35:25;;;;;;;;;;;;;;;4.09;91.29;100829.28;6278940;22;20265;-84
2022/04/16 09:37:53;;;;;;;;;;;;;;;4.11;91.42;100825.78;6304864;22;19915;-82
2022/04/16 09:40:18;;;;;;;;;;;;;;;4.02;91.13;100827.53;6306186;22;19911;-82
2022/04/16 09:42:51;;;;;;;;;;;;;;;4.05;91.33;100823.16;6306439;22;19937;-83
2022/04/16 09:45:16;;;;;;;;;;;;;;;4.10;91.57;100831.91;6306477;22;19969;-81
2022/04/16 09:47:42;;;;;;;;;;;;;;;4.06;91.38;100824.91;6306834;22;20380;-80
2022/04/16 09:50:08;;;;;;;;;;;;;;;4.04;91.19;100842.41;6296053;22;20234;-81
2022/04/16 09:52:34;;;;;;;;;;;;;;;4.10;91.50;100825.78;6306397;22;19915;-81
2022/04/16 09:55:01;;;;;;;;;;;;;;;4.10;91.33;100826.66;6306456;22;20246;-81
2022/04/16 09:57:29;;;;;;;;;;;;;;;4.07;91.22;100826.66;6306527;22;19960;-81
2022/04/16 09:59:54;;;;;;;;;;;;;;;4.07;91.10;100824.03;6306612;22;20242;-82
2022/04/16 10:02:21;;;;;;;;;;;;;;;4.06;90.95;100834.53;6306243;22;19911;-82
2022/04/16 10:04:46;;;;;;;;;;;;;;;4.00;90.76;100824.91;6303019;22;19915;-81
2022/04/16 10:07:12;;;;;;;;;;;;;;;3.97;90.79;100832.75;6304612;22;19998;-82
2022/04/16 10:09:41;;;;;;;;;;;;;;;3.99;90.73;100824.03;6302673;22;19911;-81
2022/04/16 10:14:51;;;;;;;;;;;;;;;3.94;90.47;100814.41;6305483;22;19978;-81
2022/04/16 10:17:23;;;;;;;;;;;;;;;3.97;90.47;100820.53;6304209;22;19976;-82
2022/04/16 10:19:49;;;;;;;;;;;;;;;3.95;90.44;100813.53;6303060;22;19911;-82
2022/04/16 10:22:24;;;;;;;;;;;;;;;3.96;90.35;100817.91;6304515;22;19921;-81
2022/04/16 10:24:50;;;;;;;;;;;;;;;3.98;90.45;100821.41;6306208;22;19998;-81
2022/04/16 10:27:23;;;;;;;;;;;;;;;4.00;90.46;100835.38;6303195;22;19946;-82
2022/04/16 10:29:48;;;;;;;;;;;;;;;4.04;90.58;100826.66;6304437;22;19993;-81
2022/04/16 10:32:15;;;;;;;;;;;;;;;4.06;90.61;100824.91;6305973;22;19946;-82
2022/04/16 10:34:42;;;;;;;;;;;;;;;4.08;90.60;100825.78;6302757;22;19922;-82
2022/04/16 10:37:08;;;;;;;;;;;;;;;4.03;90.46;100824.03;6306007;22;19911;-82
2022/04/16 10:39:35;;;;;;;;;;;;;;;3.99;90.18;100825.78;6269423;22;19911;-83
2022/04/16 10:42:02;;;;;;;;;;;;;;;4.02;89.97;100823.19;6278775;22;19917;-81
2022/04/16 10:44:29;;;;;;;;;;;;;;;4.02;90.03;100820.56;6305698;22;19984;-82
2022/04/16 10:46:54;;;;;;;;;;;;;;;4.00;89.68;100827.53;6306138;22;19976;-82
2022/04/16 10:49:23;;;;;;;;;;;;;;;3.99;89.72;100833.66;6304808;22;20340;-81
2022/04/16 10:51:52;;;;;;;;;;;;;;;4.01;89.67;100837.16;6306758;22;19915;-82
2022/04/16 10:54:32;;;;;;;;;;;;;;;4.03;89.56;100829.28;6280453;22;19911;-82
2022/04/16 10:56:58;;;;;;;;;;;;;;;4.05;89.59;100833.63;6306134;22;19918;-81
2022/04/16 10:59:39;;;;;;;;;;;;;;;4.11;89.66;100832.78;6307873;22;19915;-83
2022/04/16 11:02:21;;;;;;;;;;;;;;;4.07;89.29;100838.88;6307881;22;19933;-81
2022/04/16 11:04:56;;;;;;;;;;;;;;;4.05;89.09;100823.16;6306350;22;20402;-82
2022/04/16 11:07:22;;;;;;;;;;;;;;;4.05;89.01;100815.28;6307563;22;19994;-82
2022/04/16 11:09:51;;;;;;;;;;;;;;;4.08;88.93;100814.41;6307743;22;19915;-81
2022/04/16 11:12:17;;;;;;;;;;;;;;;4.04;88.75;100815.28;6307646;22;20323;-81
2022/04/16 11:14:45;;;;;;;;;;;;;;;4.09;88.78;100817.03;6298174;22;19914;-81
2022/04/16 11:17:13;;;;;;;;;;;;;;;4.08;88.73;100811.78;6307603;22;19955;-83
2022/04/16 11:19:38;;;;;;;;;;;;;;;4.04;88.43;100821.41;6306196;22;20069;-81
2022/04/16 11:22:04;;;;;;;;;;;;;;;4.05;88.35;100817.91;6280097;22;20294;-81
2022/04/16 11:24:30;;;;;;;;;;;;;;;4.09;88.34;100827.53;6280329;22;20017;-81
2022/04/16 11:35:11;;;;;;;;;;;;;;;3.99;87.38;100800.44;6305663;22;19961;-81
2022/04/16 11:37:38;;;;;;;;;;;;;;;4.02;87.15;100796.94;6279962;22;19911;-81
2022/04/16 11:40:05;;;;;;;;;;;;;;;4.05;87.41;100802.16;6280006;22;19911;-82
2022/04/16 11:42:30;;;;;;;;;;;;;;;4.17;87.62;100803.94;6279976;22;20327;-84
2022/04/16 11:44:56;;;;;;;;;;;;;;;4.07;87.28;100789.94;6270541;22;19936;-81
2022/04/16 11:47:23;;;;;;;;;;;;;;;4.14;87.60;100796.91;6307250;22;19915;-83
2022/04/16 11:49:49;;;;;;;;;;;;;;;4.14;87.48;100789.06;6305733;22;19933;-82
2022/04/16 11:52:14;;;;;;;;;;;;;;;4.19;87.53;100805.66;6307236;22;20323;-81
2022/04/16 11:54:40;;;;;;;;;;;;;;;4.14;87.18;100801.31;6307235;22;19938;-83
2022/04/16 11:57:06;;;;;;;;;;;;;;;4.13;87.14;100802.16;6306860;22;19911;-84
2022/04/16 11:59:31;;;;;;;;;;;;;;;4.16;87.06;100808.31;6306997;22;19946;-82
2022/04/16 12:01:57;;;;;;;;;;;;;;;4.17;86.98;100815.28;6307239;22;20029;-81
2022/04/16 12:04:52;;;;;;;;;;;;;;;4.22;86.92;100817.03;6278085;22;19915;-81
2022/04/16 12:07:17;;;;;;;;;;;;;;;4.17;86.59;100807.41;6280314;22;19964;-81
2022/04/16 12:09:43;;;;;;;;;;;;;;;4.16;86.34;100813.56;6307151;22;20357;-82
2022/04/16 12:12:12;;;;;;;;;;;;;;;4.21;86.33;100810.03;6307164;22;19986;-82
2022/04/16 12:14:43;;;;;;;;;;;;;;;4.16;86.15;100803.06;6280097;22;19915;-82
2022/04/16 12:17:09;;;;;;;;;;;;;;;4.14;85.92;100804.78;6307124;22;19964;-81
2022/04/16 12:19:34;;;;;;;;;;;;;;;4.16;85.77;100803.06;6305875;22;19911;-81
2022/04/16 12:21:59;;;;;;;;;;;;;;;4.18;85.57;100811.78;6307071;22;20246;-83
2022/04/16 12:24:28;;;;;;;;;;;;;;;4.19;85.56;100810.03;6307223;22;19961;-82
2022/04/16 12:26:54;;;;;;;;;;;;;;;4.21;85.44;100794.28;6307822;22;20249;-82
2022/04/16 12:29:25;;;;;;;;;;;;;;;4.30;85.77;100804.78;6305478;22;19925;-81
2022/04/16 12:31:59;;;;;;;;;;;;;;;4.27;85.27;100791.66;6279624;22;19922;-81
2022/04/16 12:34:25;;;;;;;;;;;;;;;4.22;84.95;100796.06;6295567;22;19945;-80
2022/04/16 12:36:50;;;;;;;;;;;;;;;4.20;84.70;100793.44;6297404;22;20247;-82
2022/04/16 12:39:16;;;;;;;;;;;;;;;4.24;84.51;100796.91;6307444;22;20330;-81
2022/04/16 12:41:41;;;;;;;;;;;;;;;4.30;84.75;100800.41;6279485;22;20342;-81
2022/04/16 12:44:06;;;;;;;;;;;;;;;4.24;84.62;100797.78;6279502;22;19986;-81
2022/04/16 12:46:31;;;;;;;;;;;;;;;4.26;84.57;100796.06;6302008;22;19980;-81
2022/04/16 12:48:57;;;;;;;;;;;;;;;4.28;84.37;100798.69;6305219;22;19960;-82
2022/04/16 12:51:23;;;;;;;;;;;;;;;4.41;85.17;100792.53;6306644;22;19911;-83
2022/04/16 12:53:48;;;;;;;;;;;;;;;4.42;86.49;100790.78;6279294;22;20288;-81
2022/04/16 12:56:13;;;;;;;;;;;;;;;4.35;87.36;100789.91;6306644;22;19912;-82
2022/04/16 12:58:38;;;;;;;;;;;;;;;4.29;88.45;100793.44;6274830;22;19953;-81
2022/04/16 13:01:03;;;;;;;;;;;;;;;4.35;89.69;100795.16;6297134;22;19937;-81
2022/04/16 13:03:29;;;;;;;;;;;;;;;4.38;91.12;100779.41;6306584;22;20274;-81
2022/04/16 13:05:54;;;;;;;;;;;;;;;4.52;93.40;100784.66;6277758;22;19911;-82
2022/04/16 13:08:20;;;;;;;;;;;;;;;4.83;96.39;100793.28;6306337;22;19997;-81
2022/04/16 13:10:45;;;;;;;;;;;;;;;5.04;99.60;100783.59;6253738;22;19911;-81
2022/04/16 13:13:10;;;;;;;;;;;;;;;5.30;100.00;100774.69;6306669;22;19915;-82
2022/04/16 13:15:36;;;;;;;;;;;;;;;5.50;100.00;100769.34;6306471;22;19918;-80
2022/04/16 13:18:03;;;;;;;;;;;;;;;5.66;100.00;100763.09;6306485;22;19918;-81
2022/04/16 13:20:28;;;;;;;;;;;;;;;5.70;100.00;100771.84;6277484;22;20285;-81
2022/04/16 13:22:54;;;;;;;;;;;;;;;5.79;100.00;100772.66;6306382;22;19911;-81
2022/04/16 13:25:19;;;;;;;;;;;;;;;5.88;100.00;100765.56;6278162;22;19915;-81
2022/04/16 13:27:44;;;;;;;;;;;;;;;5.90;100.00;100764.66;6268457;22;19918;-82
2022/04/16 13:30:10;;;;;;;;;;;;;;;5.94;100.00;100762.91;6306384;22;19915;-82
2022/04/16 13:32:35;;;;;;;;;;;;;;;5.98;100.00;100769.88;6306217;22;20048;-81
2022/04/16 13:35:00;;;;;;;;;;;;;;;6.09;100.00;100762.78;6304678;22;19914;-81
2022/04/16 13:37:25;;;;;;;;;;;;;;;6.16;100.00;100755.72;6306110;22;19910;-81
2022/04/16 13:42:34;;;;;;;;;;;;;;;6.24;100.00;100753.88;6306458;22;19918;-81
2022/04/16 13:45:00;;;;;;;;;;;;;;;6.27;100.00;100763.50;6306439;22;19918;-81
2022/04/16 13:47:25;;;;;;;;;;;;;;;6.29;100.00;100754.72;6306441;22;19911;-82
2022/04/16 13:49:50;;;;;;;;;;;;;;;6.34;100.00;100755.53;6277451;22;20014;-81
2022/04/16 13:52:16;;;;;;;;;;;;;;;6.36;100.00;100750.25;6269391;22;19942;-80
2022/04/16 13:54:41;;;;;;;;;;;;;;;6.39;100.00;100747.59;6279351;22;20306;-80
2022/04/16 13:57:08;;;;;;;;;;;;;;;6.42;100.00;100744.06;6278995;22;19918;-80
2022/04/16 13:59:34;;;;;;;;;;;;;;;6.46;100.00;100737.84;6297769;22;19915;-80
2022/04/16 14:01:59;;;;;;;;;;;;;;;6.50;100.00;100739.59;6306521;22;19917;-81
2022/04/16 14:04:24;;;;;;;;;;;;;;;6.50;100.00;100736.94;6277392;22;19911;-81
2022/04/16 14:06:50;;;;;;;;;;;;;;;6.52;100.00;100745.69;6278920;22;19915;-81
2022/04/16 14:09:15;;;;;;;;;;;;;;;6.56;100.00;100750.06;6306540;22;19918;-80
2022/04/16 14:11:41;;;;;;;;;;;;;;;6.56;100.00;100755.31;6306619;22;19922;-80
2022/04/16 14:14:07;;;;;;;;;;;;;;;6.59;100.00;100751.75;6279115;22;19934;-80
2022/04/16 14:16:33;;;;;;;;;;;;;;;6.60;100.00;100737.72;6278870;22;19915;-80
2022/04/16 14:18:58;;;;;;;;;;;;;;;6.63;100.00;100746.44;6304728;22;20285;-80
2022/04/16 14:21:23;;;;;;;;;;;;;;;6.63;100.00;100741.19;6306304;22;19911;-80
2022/04/16 14:23:49;;;;;;;;;;;;;;;6.67;100.00;100742.00;6306227;22;20297;-81
2022/04/16 14:26:14;;;;;;;;;;;;;;;6.69;100.00;100741.09;6307224;22;19956;-80
2022/04/16 14:28:40;;;;;;;;;;;;;;;6.35;100.00;100745.84;6308209;22;20036;-80
2022/04/16 14:31:06;;;;;;;;;;;;;;;5.59;100.00;100749.13;6308139;22;20227;-80
2022/04/16 14:33:35;;;;;;;;;;;;;;;5.38;100.00;100750.13;6280906;22;19922;-81
2022/04/16 14:36:03;;;;;;;;;;;;;;;5.27;100.00;100742.31;6307061;22;20351;-81
2022/04/16 14:38:29;;;;;;;;;;;;;;;5.16;100.00;100744.13;6308053;22;19911;-80
2022/04/16 14:41:09;;;;;;;;;;;;;;;5.03;100.00;100742.47;6308414;22;19928;-81
2022/04/16 14:43:35;;;;;;;;;;;;;;;5.00;100.00;100743.34;6280683;22;19915;-80
2022/04/16 14:46:00;;;;;;;;;;;;;;;4.95;100.00;100728.50;6280461;22;19922;-80
2022/04/16 14:48:25;;;;;;;;;;;;;;;4.88;100.00;100738.13;6307865;22;19911;-81
2022/04/16 14:50:50;;;;;;;;;;;;;;;4.78;100.00;100734.66;6306236;22;20315;-81
2022/04/16 14:53:16;;;;;;;;;;;;;;;4.78;100.00;100737.28;6307847;22;19911;-81
2022/04/16 14:55:42;;;;;;;;;;;;;;;4.71;100.00;100728.56;6307974;22;19911;-81
2022/04/16 14:58:09;;;;;;;;;;;;;;;4.74;100.00;100732.94;6307802;22;19918;-81
2022/04/16 15:00:35;;;;;;;;;;;;;;;4.72;100.00;100740.84;6299407;22;19942;-81
2022/04/16 15:03:02;;;;;;;;;;;;;;;4.67;100.00;100729.44;6280296;22;19964;-81
2022/04/16 15:05:28;;;;;;;;;;;;;;;4.70;99.76;100742.56;6278967;22;19910;-80
2022/04/16 15:07:53;;;;;;;;;;;;;;;4.68;99.40;100743.47;6307880;22;20273;-82
2022/04/16 15:10:18;;;;;;;;;;;;;;;4.64;98.67;100740.00;6280511;22;19976;-81
2022/04/16 15:12:43;;;;;;;;;;;;;;;4.60;97.86;100742.63;6308190;22;20264;-80
2022/04/16 15:15:09;;;;;;;;;;;;;;;4.54;97.43;100744.38;6307731;22;20384;-80
2022/04/16 15:17:37;;;;;;;;;;;;;;;4.53;96.89;100731.25;6279733;22;19918;-80
2022/04/16 15:20:03;;;;;;;;;;;;;;;4.41;95.98;100737.41;6298301;22;19911;-81
2022/04/16 15:22:28;;;;;;;;;;;;;;;4.39;95.31;100727.78;6280063;22;20243;-80
2022/04/16 15:24:53;;;;;;;;;;;;;;;4.37;94.78;100730.41;6297800;22;19911;-81
2022/04/16 15:27:20;;;;;;;;;;;;;;;4.39;94.21;100731.31;6307627;22;20294;-80
2022/04/16 15:29:46;;;;;;;;;;;;;;;4.31;93.56;100741.81;6307684;22;19972;-82
2022/04/16 15:32:11;;;;;;;;;;;;;;;4.32;93.31;100732.19;6279985;22;19911;-80
2022/04/16 15:34:36;;;;;;;;;;;;;;;4.28;93.08;100731.31;6305641;22;20326;-80
2022/04/16 15:37:01;;;;;;;;;;;;;;;4.34;93.10;100727.78;6306914;22;20329;-79
2022/04/16 15:39:27;;;;;;;;;;;;;;;4.33;92.86;100732.19;6307696;22;19915;-79
2022/04/16 15:41:54;;;;;;;;;;;;;;;4.32;92.50;100734.81;6279798;22;19917;-80
2022/04/16 15:44:19;;;;;;;;;;;;;;;4.31;92.34;100731.31;6279336;22;20329;-80
2022/04/16 15:46:45;;;;;;;;;;;;;;;4.28;92.00;100727.84;6307298;22;19911;-80
2022/04/16 15:49:11;;;;;;;;;;;;;;;4.21;91.89;100723.47;6305632;22;19915;-80
2022/04/16 15:51:37;;;;;;;;;;;;;;;4.19;91.57;100715.59;6280042;22;19911;-80
2022/04/16 15:54:02;;;;;;;;;;;;;;;4.19;91.55;100732.19;6279948;22;19915;-81
2022/04/16 15:56:27;;;;;;;;;;;;;;;4.16;91.38;100732.22;6279947;22;19915;-80
2022/04/16 15:58:52;;;;;;;;;;;;;;;4.19;91.17;100729.56;6306947;22;20014;-81
2022/04/16 16:01:18;;;;;;;;;;;;;;;4.22;91.19;100730.47;6280094;22;19910;-80
2022/04/16 16:03:44;;;;;;;;;;;;;;;4.23;90.99;100737.44;6277474;22;20307;-80
2022/04/16 16:06:09;;;;;;;;;;;;;;;4.19;90.78;100734.81;6306153;22;19911;-80
2022/04/16 16:08:34;;;;;;;;;;;;;;;4.14;90.57;100739.22;6279341;22;19910;-80
2022/04/16 16:11:00;;;;;;;;;;;;;;;4.09;90.50;100740.97;6306548;22;19926;-80
2022/04/16 16:13:26;;;;;;;;;;;;;;;4.08;90.85;100736.59;6304748;22;20005;-80
2022/04/16 16:15:51;;;;;;;;;;;;;;;4.08;90.69;100726.09;6305692;22;19936;-80
2022/04/16 16:18:17;;;;;;;;;;;;;;;4.07;90.43;100720.84;6306618;22;19985;-80
2022/04/16 16:20:43;;;;;;;;;;;;;;;4.07;90.32;100726.09;6305421;22;19911;-80
2022/04/16 16:23:08;;;;;;;;;;;;;;;4.05;90.29;100726.09;6279352;22;19956;-81
2022/04/16 16:25:34;;;;;;;;;;;;;;;4.02;90.21;100734.00;6279632;22;19922;-80
2022/04/16 16:27:59;;;;;;;;;;;;;;;4.00;90.33;100715.63;6306922;22;19911;-80
2022/04/16 16:30:24;;;;;;;;;;;;;;;3.98;90.35;100716.50;6306918;22;20380;-80
2022/04/16 16:32:50;;;;;;;;;;;;;;;3.97;90.29;100714.75;6306092;22;20254;-80
2022/04/16 16:35:15;;;;;;;;;;;;;;;3.96;90.37;100715.66;6305060;22;19915;-81
2022/04/16 16:37:41;;;;;;;;;;;;;;;4.01;90.37;100719.13;6279677;22;19915;-81
2022/04/16 16:40:07;;;;;;;;;;;;;;;3.98;90.20;100717.38;6306655;22;20331;-80
2022/04/16 16:42:32;;;;;;;;;;;;;;;3.97;90.33;100717.38;6279513;22;19956;-80
2022/04/16 16:44:57;;;;;;;;;;;;;;;3.95;90.24;100720.00;6278951;22;19911;-81
2022/04/16 16:47:23;;;;;;;;;;;;;;;3.96;90.20;100718.25;6279010;22;19915;-80
2022/04/16 16:49:48;;;;;;;;;;;;;;;3.94;90.05;100709.50;6305179;22;19911;-80
2022/04/16 16:52:13;;;;;;;;;;;;;;;3.97;90.13;100715.66;6270059;22;19915;-80
2022/04/16 16:54:39;;;;;;;;;;;;;;;3.93;89.80;100710.41;6279262;22;19953;-80
2022/04/16 16:57:04;;;;;;;;;;;;;;;3.93;89.63;100713.03;6306395;22;19914;-80
2022/04/16 16:59:29;;;;;;;;;;;;;;;3.88;89.49;100709.50;6270017;22;20127;-81
2022/04/16 17:01:55;;;;;;;;;;;;;;;3.88;89.54;100714.75;6279220;22;19914;-81
2022/04/16 17:09:51;;;;;;;;;;;;;;;3.77;89.82;100713.03;6306606;22;19922;-80
2022/04/16 17:12:16;;;;;;;;;;;;;;;3.79;90.03;100721.75;6306615;22;20374;-81
2022/04/16 17:20:10;;;;;;;;;;;;;;;3.84;89.86;100719.13;6304500;22;19921;-81
2022/04/16 17:22:35;;;;;;;;;;;;;;;3.87;89.79;100720.88;6306269;22;20343;-80
2022/04/16 17:25:01;;;;;;;;;;;;;;;3.85;89.50;100717.41;6278633;22;19941;-80
2022/04/16 17:27:26;;;;;;;;;;;;;;;3.79;89.53;100721.75;6306183;22;19960;-80
2022/04/16 17:29:51;;;;;;;;;;;;;;;3.78;89.48;100719.13;6305947;22;19911;-80
2022/04/16 17:32:16;;;;;;;;;;;;;;;3.76;89.37;100721.75;6279036;22;19915;-80
2022/04/16 17:34:42;;;;;;;;;;;;;;;3.82;89.44;100719.13;6304719;22;19997;-80
2022/04/16 17:37:07;;;;;;;;;;;;;;;3.82;89.29;100721.75;6306261;22;19921;-81
2022/04/16 17:39:32;;;;;;;;;;;;;;;3.80;89.08;100718.25;6306330;22;20338;-80
2022/04/16 17:42:09;;;;;;;;;;;;;;;3.77;89.09;100720.03;6306001;22;19914;-80
2022/04/16 17:44:35;;;;;;;;;;;;;;;3.74;89.02;100718.25;6306212;22;19938;-80